15.4°F
Current conditions from King Hill
Updated every 5 minutes
 
  Friday December 19, 2014

Station Historical Data
Daily Summary for March 2, 2012 Units:  Both    English   Metric
« Previous Day
Next Day »
Daily Weekly Monthly Yearly Custom
  High: Low: Average:
Temperature: 37.5 °F /  3.1 °C 26.5 °F /  -3.1 °C 30.7 °F /  -0.7 °C
Dew Point: 27.9 °F /  -2.3 °C 19.4 °F /  -7 °C 23.3 °F /  -4.8 °C
Humidity: 78% 67% 74%
Wind Speed: 9.0mph /  14.5km/h - 4.8mph /  7.7km/h
Wind Gust: 18.0mph /  29km/h - -
Wind- - SSW
Pressure: 30.00 in /  1015.8 hPa 29.69 in /  1005.3 hPa -
Precipitation: 0.00 in /  0 mm    
Historical Graphs
 
 
Tabular Data for March 2, 2012
Time Temperature Dew Point Pressure Wind Wind Speed Wind Gust Humidity Daily Rainfall
00:04 26.8 °F /  -2.9 °C 20.3 °F /  -6.5 °C 29.93in /  1013.4hPa SSW 1.0mph /  1.6km/h 6.0mph /  9.7km/h 76% 0.00in /  0mm
00:09 26.9 °F /  -2.8 °C 20.4 °F /  -6.4 °C 29.93in /  1013.4hPa Calm   4.0mph /  6.4km/h 76% 0.00in /  0mm
00:14 27.0 °F /  -2.8 °C 20.1 °F /  -6.6 °C 29.93in /  1013.4hPa Calm   4.0mph /  6.4km/h 75% 0.00in /  0mm
00:19 27.1 °F /  -2.7 °C 20.2 °F /  -6.6 °C 29.93in /  1013.4hPa SSW 2.0mph /  3.2km/h 4.0mph /  6.4km/h 75% 0.00in /  0mm
00:24 27.1 °F /  -2.7 °C 20.2 °F /  -6.6 °C 29.93in /  1013.4hPa SSW 3.0mph /  4.8km/h 7.0mph /  11.3km/h 75% 0.00in /  0mm
00:29 27.1 °F /  -2.7 °C 19.9 °F /  -6.7 °C 29.94in /  1013.8hPa SSW 1.0mph /  1.6km/h 7.0mph /  11.3km/h 74% 0.00in /  0mm
00:34 27.1 °F /  -2.7 °C 19.9 °F /  -6.7 °C 29.94in /  1013.8hPa SSW 2.0mph /  3.2km/h 6.0mph /  9.7km/h 74% 0.00in /  0mm
00:39 27.1 °F /  -2.7 °C 19.9 °F /  -6.7 °C 29.94in /  1013.8hPa SSW 2.0mph /  3.2km/h 5.0mph /  8km/h 74% 0.00in /  0mm
00:44 27.1 °F /  -2.7 °C 19.9 °F /  -6.7 °C 29.94in /  1013.8hPa SSW 2.0mph /  3.2km/h 6.0mph /  9.7km/h 74% 0.00in /  0mm
00:49 27.1 °F /  -2.7 °C 19.9 °F /  -6.7 °C 29.94in /  1013.8hPa Calm   6.0mph /  9.7km/h 74% 0.00in /  0mm
00:54 27.1 °F /  -2.7 °C 19.9 °F /  -6.7 °C 29.94in /  1013.8hPa SSW 1.0mph /  1.6km/h 5.0mph /  8km/h 74% 0.00in /  0mm
00:59 27.0 °F /  -2.8 °C 19.8 °F /  -6.8 °C 29.94in /  1013.8hPa SSW 2.0mph /  3.2km/h 6.0mph /  9.7km/h 74% 0.00in /  0mm
01:04 27.1 °F /  -2.7 °C 19.6 °F /  -6.9 °C 29.94in /  1013.8hPa SSW 2.0mph /  3.2km/h 6.0mph /  9.7km/h 73% 0.00in /  0mm
01:09 27.2 °F /  -2.7 °C 19.4 °F /  -7 °C 29.95in /  1014.1hPa SSW 4.0mph /  6.4km/h 7.0mph /  11.3km/h 72% 0.00in /  0mm
01:14 27.2 °F /  -2.7 °C 19.7 °F /  -6.8 °C 29.94in /  1013.8hPa SSW 2.0mph /  3.2km/h 7.0mph /  11.3km/h 73% 0.00in /  0mm
01:19 27.2 °F /  -2.7 °C 19.7 °F /  -6.8 °C 29.95in /  1014.1hPa SSW 3.0mph /  4.8km/h 7.0mph /  11.3km/h 73% 0.00in /  0mm
01:24 27.2 °F /  -2.7 °C 19.7 °F /  -6.8 °C 29.95in /  1014.1hPa SSW 1.0mph /  1.6km/h 7.0mph /  11.3km/h 73% 0.00in /  0mm
01:29 27.1 °F /  -2.7 °C 19.6 °F /  -6.9 °C 29.95in /  1014.1hPa SSW 2.0mph /  3.2km/h 5.0mph /  8km/h 73% 0.00in /  0mm
01:34 27.2 °F /  -2.7 °C 19.4 °F /  -7 °C 29.95in /  1014.1hPa SSW 2.0mph /  3.2km/h 5.0mph /  8km/h 72% 0.00in /  0mm
01:39 27.1 °F /  -2.7 °C 19.6 °F /  -6.9 °C 29.95in /  1014.1hPa SSW 2.0mph /  3.2km/h 6.0mph /  9.7km/h 73% 0.00in /  0mm
01:44 27.1 °F /  -2.7 °C 19.6 °F /  -6.9 °C 29.95in /  1014.1hPa SSW 2.0mph /  3.2km/h 6.0mph /  9.7km/h 73% 0.00in /  0mm
01:49 26.9 °F /  -2.8 °C 19.7 °F /  -6.8 °C 29.95in /  1014.1hPa SSW 1.0mph /  1.6km/h 6.0mph /  9.7km/h 74% 0.00in /  0mm
01:54 26.7 °F /  -2.9 °C 19.8 °F /  -6.8 °C 29.95in /  1014.1hPa SSW 2.0mph /  3.2km/h 6.0mph /  9.7km/h 75% 0.00in /  0mm
01:59 26.6 °F /  -3 °C 19.7 °F /  -6.8 °C 29.95in /  1014.1hPa SSW 1.0mph /  1.6km/h 6.0mph /  9.7km/h 75% 0.00in /  0mm
02:04 26.6 °F /  -3 °C 19.7 °F /  -6.8 °C 29.95in /  1014.1hPa SSW 2.0mph /  3.2km/h 6.0mph /  9.7km/h 75% 0.00in /  0mm
02:09 26.6 °F /  -3 °C 19.7 °F /  -6.8 °C 29.95in /  1014.1hPa SSW 2.0mph /  3.2km/h 6.0mph /  9.7km/h 75% 0.00in /  0mm
02:14 26.7 °F /  -2.9 °C 19.8 °F /  -6.8 °C 29.95in /  1014.1hPa SSW 3.0mph /  4.8km/h 6.0mph /  9.7km/h 75% 0.00in /  0mm
02:19 26.7 °F /  -2.9 °C 19.8 °F /  -6.8 °C 29.95in /  1014.1hPa SSW 2.0mph /  3.2km/h 6.0mph /  9.7km/h 75% 0.00in /  0mm
02:24 26.7 °F /  -2.9 °C 19.8 °F /  -6.8 °C 29.96in /  1014.4hPa SSW 2.0mph /  3.2km/h 6.0mph /  9.7km/h 75% 0.00in /  0mm
02:29 26.6 °F /  -3 °C 20.1 °F /  -6.6 °C 29.96in /  1014.4hPa SSW 2.0mph /  3.2km/h 5.0mph /  8km/h 76% 0.00in /  0mm
02:34 26.5 °F /  -3.1 °C 20.0 °F /  -6.7 °C 29.96in /  1014.4hPa SSW 1.0mph /  1.6km/h 5.0mph /  8km/h 76% 0.00in /  0mm
02:39 26.6 °F /  -3 °C 19.7 °F /  -6.8 °C 29.96in /  1014.4hPa SSW 3.0mph /  4.8km/h 7.0mph /  11.3km/h 75% 0.00in /  0mm
02:44 26.8 °F /  -2.9 °C 19.6 °F /  -6.9 °C 29.96in /  1014.4hPa SSW 4.0mph /  6.4km/h 7.0mph /  11.3km/h 74% 0.00in /  0mm
02:49 26.9 °F /  -2.8 °C 19.7 °F /  -6.8 °C 29.96in /  1014.4hPa SSW 3.0mph /  4.8km/h 7.0mph /  11.3km/h 74% 0.00in /  0mm
02:54 27.0 °F /  -2.8 °C 19.8 °F /  -6.8 °C 29.96in /  1014.4hPa SSW 4.0mph /  6.4km/h 9.0mph /  14.5km/h 74% 0.00in /  0mm
02:59 27.1 °F /  -2.7 °C 19.9 °F /  -6.7 °C 29.96in /  1014.4hPa South 6.0mph /  9.7km/h 9.0mph /  14.5km/h 74% 0.00in /  0mm
03:04 27.1 °F /  -2.7 °C 19.9 °F /  -6.7 °C 29.96in /  1014.4hPa South 4.0mph /  6.4km/h 9.0mph /  14.5km/h 74% 0.00in /  0mm
03:09 27.1 °F /  -2.7 °C 19.9 °F /  -6.7 °C 29.97in /  1014.8hPa South 3.0mph /  4.8km/h 7.0mph /  11.3km/h 74% 0.00in /  0mm
03:14 27.1 °F /  -2.7 °C 19.9 °F /  -6.7 °C 29.97in /  1014.8hPa South 3.0mph /  4.8km/h 6.0mph /  9.7km/h 74% 0.00in /  0mm
03:19 27.2 °F /  -2.7 °C 20.0 °F /  -6.7 °C 29.96in /  1014.4hPa SSW 5.0mph /  8km/h 8.0mph /  12.9km/h 74% 0.00in /  0mm
03:24 27.2 °F /  -2.7 °C 20.0 °F /  -6.7 °C 29.96in /  1014.4hPa South 5.0mph /  8km/h 9.0mph /  14.5km/h 74% 0.00in /  0mm
03:29 27.2 °F /  -2.7 °C 20.0 °F /  -6.7 °C 29.96in /  1014.4hPa SSW 2.0mph /  3.2km/h 9.0mph /  14.5km/h 74% 0.00in /  0mm
03:34 27.3 °F /  -2.6 °C 20.1 °F /  -6.6 °C 29.97in /  1014.8hPa SSW 4.0mph /  6.4km/h 8.0mph /  12.9km/h 74% 0.00in /  0mm
03:39 27.3 °F /  -2.6 °C 20.1 °F /  -6.6 °C 29.97in /  1014.8hPa SSW 5.0mph /  8km/h 8.0mph /  12.9km/h 74% 0.00in /  0mm
03:44 27.3 °F /  -2.6 °C 20.1 °F /  -6.6 °C 29.97in /  1014.8hPa SSW 5.0mph /  8km/h 8.0mph /  12.9km/h 74% 0.00in /  0mm
03:49 27.4 °F /  -2.6 °C 20.2 °F /  -6.6 °C 29.97in /  1014.8hPa SSW 6.0mph /  9.7km/h 11.0mph /  17.7km/h 74% 0.00in /  0mm
03:54 27.4 °F /  -2.6 °C 20.5 °F /  -6.4 °C 29.97in /  1014.8hPa SSW 5.0mph /  8km/h 11.0mph /  17.7km/h 75% 0.00in /  0mm
03:59 27.4 °F /  -2.6 °C 20.5 °F /  -6.4 °C 29.97in /  1014.8hPa SSW 4.0mph /  6.4km/h 11.0mph /  17.7km/h 75% 0.00in /  0mm
04:04 27.4 °F /  -2.6 °C 20.5 °F /  -6.4 °C 29.97in /  1014.8hPa SSW 5.0mph /  8km/h 13.0mph /  20.9km/h 75% 0.00in /  0mm
04:09 27.4 °F /  -2.6 °C 20.8 °F /  -6.2 °C 29.97in /  1014.8hPa SSW 6.0mph /  9.7km/h 13.0mph /  20.9km/h 76% 0.00in /  0mm
04:14 27.5 °F /  -2.5 °C 20.9 °F /  -6.2 °C 29.97in /  1014.8hPa South 5.0mph /  8km/h 10.0mph /  16.1km/h 76% 0.00in /  0mm
04:19 27.4 °F /  -2.6 °C 20.8 °F /  -6.2 °C 29.97in /  1014.8hPa South 5.0mph /  8km/h 10.0mph /  16.1km/h 76% 0.00in /  0mm
04:24 27.5 °F /  -2.5 °C 21.2 °F /  -6 °C 29.97in /  1014.8hPa South 5.0mph /  8km/h 14.0mph /  22.5km/h 77% 0.00in /  0mm
04:34 27.5 °F /  -2.5 °C 21.2 °F /  -6 °C 29.97in /  1014.8hPa South 4.0mph /  6.4km/h 10.0mph /  16.1km/h 77% 0.00in /  0mm
04:44 27.6 °F /  -2.4 °C 21.3 °F /  -5.9 °C 29.97in /  1014.8hPa South 5.0mph /  8km/h 10.0mph /  16.1km/h 77% 0.00in /  0mm
04:49 27.6 °F /  -2.4 °C 21.3 °F /  -5.9 °C 29.97in /  1014.8hPa SSW 4.0mph /  6.4km/h 9.0mph /  14.5km/h 77% 0.00in /  0mm
04:54 27.6 °F /  -2.4 °C 21.6 °F /  -5.8 °C 29.97in /  1014.8hPa SSW 3.0mph /  4.8km/h 9.0mph /  14.5km/h 78% 0.00in /  0mm
04:59 27.6 °F /  -2.4 °C 21.3 °F /  -5.9 °C 29.97in /  1014.8hPa SSW 4.0mph /  6.4km/h 9.0mph /  14.5km/h 77% 0.00in /  0mm
05:04 27.6 °F /  -2.4 °C 21.6 °F /  -5.8 °C 29.97in /  1014.8hPa SSW 4.0mph /  6.4km/h 7.0mph /  11.3km/h 78% 0.00in /  0mm
05:09 27.6 °F /  -2.4 °C 21.6 °F /  -5.8 °C 29.97in /  1014.8hPa SSW 4.0mph /  6.4km/h 7.0mph /  11.3km/h 78% 0.00in /  0mm
05:14 27.6 °F /  -2.4 °C 21.6 °F /  -5.8 °C 29.97in /  1014.8hPa SSW 2.0mph /  3.2km/h 8.0mph /  12.9km/h 78% 0.00in /  0mm
05:19 27.6 °F /  -2.4 °C 21.6 °F /  -5.8 °C 29.97in /  1014.8hPa South 5.0mph /  8km/h 8.0mph /  12.9km/h 78% 0.00in /  0mm
05:24 27.6 °F /  -2.4 °C 21.6 °F /  -5.8 °C 29.97in /  1014.8hPa SSW 2.0mph /  3.2km/h 10.0mph /  16.1km/h 78% 0.00in /  0mm
05:34 27.6 °F /  -2.4 °C 21.6 °F /  -5.8 °C 29.97in /  1014.8hPa SSW 2.0mph /  3.2km/h 7.0mph /  11.3km/h 78% 0.00in /  0mm
05:39 27.6 °F /  -2.4 °C 21.6 °F /  -5.8 °C 29.97in /  1014.8hPa SSW 4.0mph /  6.4km/h 9.0mph /  14.5km/h 78% 0.00in /  0mm
05:44 27.6 °F /  -2.4 °C 21.6 °F /  -5.8 °C 29.97in /  1014.8hPa SSW 4.0mph /  6.4km/h 9.0mph /  14.5km/h 78% 0.00in /  0mm
05:49 27.7 °F /  -2.4 °C 21.7 °F /  -5.7 °C 29.97in /  1014.8hPa SSW 5.0mph /  8km/h 8.0mph /  12.9km/h 78% 0.00in /  0mm
05:54 27.7 °F /  -2.4 °C 21.7 °F /  -5.7 °C 29.97in /  1014.8hPa SSW 4.0mph /  6.4km/h 8.0mph /  12.9km/h 78% 0.00in /  0mm
05:59 27.7 °F /  -2.4 °C 21.4 °F /  -5.9 °C 29.97in /  1014.8hPa SSW 4.0mph /  6.4km/h 8.0mph /  12.9km/h 77% 0.00in /  0mm
06:04 27.8 °F /  -2.3 °C 21.5 °F /  -5.8 °C 29.97in /  1014.8hPa SSW 5.0mph /  8km/h 8.0mph /  12.9km/h 77% 0.00in /  0mm
06:09 27.8 °F /  -2.3 °C 21.5 °F /  -5.8 °C 29.97in /  1014.8hPa SSW 5.0mph /  8km/h 10.0mph /  16.1km/h 77% 0.00in /  0mm
06:14 27.8 °F /  -2.3 °C 21.5 °F /  -5.8 °C 29.97in /  1014.8hPa SW 4.0mph /  6.4km/h 10.0mph /  16.1km/h 77% 0.00in /  0mm
06:19 27.8 °F /  -2.3 °C 21.5 °F /  -5.8 °C 29.98in /  1015.1hPa SSW 3.0mph /  4.8km/h 10.0mph /  16.1km/h 77% 0.00in /  0mm
06:24 27.9 °F /  -2.3 °C 21.6 °F /  -5.8 °C 29.98in /  1015.1hPa SSW 5.0mph /  8km/h 10.0mph /  16.1km/h 77% 0.00in /  0mm
06:29 27.9 °F /  -2.3 °C 21.6 °F /  -5.8 °C 29.98in /  1015.1hPa SSW 3.0mph /  4.8km/h 10.0mph /  16.1km/h 77% 0.00in /  0mm
06:34 27.9 °F /  -2.3 °C 21.6 °F /  -5.8 °C 29.98in /  1015.1hPa SSW 6.0mph /  9.7km/h 8.0mph /  12.9km/h 77% 0.00in /  0mm
06:39 27.9 °F /  -2.3 °C 21.3 °F /  -5.9 °C 29.98in /  1015.1hPa SSW 5.0mph /  8km/h 11.0mph /  17.7km/h 76% 0.00in /  0mm
06:44 28.0 °F /  -2.2 °C 21.4 °F /  -5.9 °C 29.98in /  1015.1hPa SSW 7.0mph /  11.3km/h 13.0mph /  20.9km/h 76% 0.00in /  0mm
06:49 28.0 °F /  -2.2 °C 21.4 °F /  -5.9 °C 29.98in /  1015.1hPa SSW 6.0mph /  9.7km/h 13.0mph /  20.9km/h 76% 0.00in /  0mm
06:54 28.0 °F /  -2.2 °C 21.4 °F /  -5.9 °C 29.98in /  1015.1hPa SSW 5.0mph /  8km/h 11.0mph /  17.7km/h 76% 0.00in /  0mm
06:59 27.9 °F /  -2.3 °C 21.3 °F /  -5.9 °C 29.98in /  1015.1hPa SSW 5.0mph /  8km/h 10.0mph /  16.1km/h 76% 0.00in /  0mm
07:04 27.9 °F /  -2.3 °C 21.3 °F /  -5.9 °C 29.98in /  1015.1hPa SSW 4.0mph /  6.4km/h 11.0mph /  17.7km/h 76% 0.00in /  0mm
07:09 27.9 °F /  -2.3 °C 21.3 °F /  -5.9 °C 29.98in /  1015.1hPa SSW 5.0mph /  8km/h 11.0mph /  17.7km/h 76% 0.00in /  0mm
07:14 27.9 °F /  -2.3 °C 21.3 °F /  -5.9 °C 29.98in /  1015.1hPa SSW 6.0mph /  9.7km/h 11.0mph /  17.7km/h 76% 0.00in /  0mm
07:19 27.9 °F /  -2.3 °C 21.3 °F /  -5.9 °C 29.99in /  1015.5hPa SSW 6.0mph /  9.7km/h 11.0mph /  17.7km/h 76% 0.00in /  0mm
07:24 27.8 °F /  -2.3 °C 21.2 °F /  -6 °C 29.98in /  1015.1hPa SSW 8.0mph /  12.9km/h 12.0mph /  19.3km/h 76% 0.00in /  0mm
07:29 27.9 °F /  -2.3 °C 21.3 °F /  -5.9 °C 29.99in /  1015.5hPa SSW 6.0mph /  9.7km/h 12.0mph /  19.3km/h 76% 0.00in /  0mm
07:34 27.9 °F /  -2.3 °C 21.3 °F /  -5.9 °C 29.99in /  1015.5hPa SSW 4.0mph /  6.4km/h 11.0mph /  17.7km/h 76% 0.00in /  0mm
07:39 27.9 °F /  -2.3 °C 21.3 °F /  -5.9 °C 29.99in /  1015.5hPa SSW 6.0mph /  9.7km/h 12.0mph /  19.3km/h 76% 0.00in /  0mm
07:44 27.9 °F /  -2.3 °C 21.3 °F /  -5.9 °C 29.99in /  1015.5hPa SSW 6.0mph /  9.7km/h 12.0mph /  19.3km/h 76% 0.00in /  0mm
07:49 28.0 °F /  -2.2 °C 21.4 °F /  -5.9 °C 29.99in /  1015.5hPa South 6.0mph /  9.7km/h 11.0mph /  17.7km/h 76% 0.00in /  0mm
07:54 28.1 °F /  -2.2 °C 21.2 °F /  -6 °C 29.99in /  1015.5hPa SSW 7.0mph /  11.3km/h 12.0mph /  19.3km/h 75% 0.00in /  0mm
07:59 28.1 °F /  -2.2 °C 21.2 °F /  -6 °C 29.99in /  1015.5hPa SSW 6.0mph /  9.7km/h 13.0mph /  20.9km/h 75% 0.00in /  0mm
08:04 28.1 °F /  -2.2 °C 21.2 °F /  -6 °C 29.99in /  1015.5hPa SSW 6.0mph /  9.7km/h 13.0mph /  20.9km/h 75% 0.00in /  0mm
08:09 28.1 °F /  -2.2 °C 21.2 °F /  -6 °C 29.99in /  1015.5hPa SSW 6.0mph /  9.7km/h 12.0mph /  19.3km/h 75% 0.00in /  0mm
08:14 28.2 °F /  -2.1 °C 21.3 °F /  -5.9 °C 29.99in /  1015.5hPa SSW 6.0mph /  9.7km/h 14.0mph /  22.5km/h 75% 0.00in /  0mm
08:19 28.2 °F /  -2.1 °C 21.3 °F /  -5.9 °C 29.99in /  1015.5hPa SSW 6.0mph /  9.7km/h 14.0mph /  22.5km/h 75% 0.00in /  0mm
08:24 28.3 °F /  -2.1 °C 21.4 °F /  -5.9 °C 29.99in /  1015.5hPa SSW 7.0mph /  11.3km/h 11.0mph /  17.7km/h 75% 0.00in /  0mm
08:29 28.3 °F /  -2.1 °C 21.4 °F /  -5.9 °C 30.00in /  1015.8hPa SSW 7.0mph /  11.3km/h 12.0mph /  19.3km/h 75% 0.00in /  0mm
08:34 28.3 °F /  -2.1 °C 21.4 °F /  -5.9 °C 30.00in /  1015.8hPa SSW 6.0mph /  9.7km/h 13.0mph /  20.9km/h 75% 0.00in /  0mm
08:39 28.4 °F /  -2 °C 21.5 °F /  -5.8 °C 29.99in /  1015.5hPa SSW 6.0mph /  9.7km/h 13.0mph /  20.9km/h 75% 0.00in /  0mm
08:44 28.4 °F /  -2 °C 21.5 °F /  -5.8 °C 30.00in /  1015.8hPa SSW 5.0mph /  8km/h 13.0mph /  20.9km/h 75% 0.00in /  0mm
08:49 28.4 °F /  -2 °C 21.5 °F /  -5.8 °C 29.99in /  1015.5hPa SSW 5.0mph /  8km/h 13.0mph /  20.9km/h 75% 0.00in /  0mm
08:54 28.4 °F /  -2 °C 21.5 °F /  -5.8 °C 29.99in /  1015.5hPa SSW 6.0mph /  9.7km/h 14.0mph /  22.5km/h 75% 0.00in /  0mm
08:59 28.5 °F /  -1.9 °C 21.6 °F /  -5.8 °C 29.99in /  1015.5hPa SSW 6.0mph /  9.7km/h 14.0mph /  22.5km/h 75% 0.00in /  0mm
09:04 28.5 °F /  -1.9 °C 21.6 °F /  -5.8 °C 29.99in /  1015.5hPa SSW 7.0mph /  11.3km/h 12.0mph /  19.3km/h 75% 0.00in /  0mm
09:09 28.5 °F /  -1.9 °C 21.3 °F /  -5.9 °C 29.99in /  1015.5hPa SSW 6.0mph /  9.7km/h 12.0mph /  19.3km/h 74% 0.00in /  0mm
09:14 28.5 °F /  -1.9 °C 21.3 °F /  -5.9 °C 29.99in /  1015.5hPa SSW 7.0mph /  11.3km/h 13.0mph /  20.9km/h 74% 0.00in /  0mm
09:19 28.6 °F /  -1.9 °C 21.4 °F /  -5.9 °C 29.99in /  1015.5hPa SSW 7.0mph /  11.3km/h 13.0mph /  20.9km/h 74% 0.00in /  0mm
09:24 28.6 °F /  -1.9 °C 21.4 °F /  -5.9 °C 29.99in /  1015.5hPa SSW 7.0mph /  11.3km/h 12.0mph /  19.3km/h 74% 0.00in /  0mm
09:34 28.7 °F /  -1.8 °C 21.5 °F /  -5.8 °C 29.99in /  1015.5hPa SSW 7.0mph /  11.3km/h 13.0mph /  20.9km/h 74% 0.00in /  0mm
09:39 28.8 °F /  -1.8 °C 21.6 °F /  -5.8 °C 29.99in /  1015.5hPa SSW 7.0mph /  11.3km/h 13.0mph /  20.9km/h 74% 0.00in /  0mm
09:44 28.8 °F /  -1.8 °C 21.6 °F /  -5.8 °C 29.99in /  1015.5hPa SSW 8.0mph /  12.9km/h 14.0mph /  22.5km/h 74% 0.00in /  0mm
09:54 28.9 °F /  -1.7 °C 21.7 °F /  -5.7 °C 29.99in /  1015.5hPa SSW 6.0mph /  9.7km/h 12.0mph /  19.3km/h 74% 0.00in /  0mm
09:59 29.1 °F /  -1.6 °C 21.9 °F /  -5.6 °C 29.99in /  1015.5hPa SSW 6.0mph /  9.7km/h 12.0mph /  19.3km/h 74% 0.00in /  0mm
10:04 29.2 °F /  -1.6 °C 21.9 °F /  -5.6 °C 29.99in /  1015.5hPa SSW 6.0mph /  9.7km/h 13.0mph /  20.9km/h 74% 0.00in /  0mm
10:09 29.2 °F /  -1.6 °C 21.9 °F /  -5.6 °C 29.99in /  1015.5hPa SSW 9.0mph /  14.5km/h 17.0mph /  27.4km/h 74% 0.00in /  0mm
10:14 29.3 °F /  -1.5 °C 22.0 °F /  -5.6 °C 29.99in /  1015.5hPa SSW 7.0mph /  11.3km/h 17.0mph /  27.4km/h 74% 0.00in /  0mm
10:19 29.4 °F /  -1.4 °C 22.1 °F /  -5.5 °C 30.00in /  1015.8hPa SSW 7.0mph /  11.3km/h 14.0mph /  22.5km/h 74% 0.00in /  0mm
10:24 29.5 °F /  -1.4 °C 22.2 °F /  -5.4 °C 29.99in /  1015.5hPa SSW 7.0mph /  11.3km/h 15.0mph /  24.1km/h 74% 0.00in /  0mm
10:29 29.6 °F /  -1.3 °C 22.3 °F /  -5.4 °C 29.99in /  1015.5hPa SSW 7.0mph /  11.3km/h 15.0mph /  24.1km/h 74% 0.00in /  0mm
10:40 29.8 °F /  -1.2 °C 22.8 °F /  -5.1 °C 29.99in /  1015.5hPa SSW 5.0mph /  8km/h 14.0mph /  22.5km/h 75% 0.00in /  0mm
10:49 29.9 °F /  -1.2 °C 22.9 °F /  -5.1 °C 29.99in /  1015.5hPa SSW 7.0mph /  11.3km/h 14.0mph /  22.5km/h 75% 0.00in /  0mm
10:54 30.0 °F /  -1.1 °C 23.0 °F /  -5 °C 29.99in /  1015.5hPa SSW 7.0mph /  11.3km/h 14.0mph /  22.5km/h 75% 0.00in /  0mm
10:59 30.1 °F /  -1.1 °C 23.1 °F /  -4.9 °C 29.99in /  1015.5hPa SW 9.0mph /  14.5km/h 14.0mph /  22.5km/h 75% 0.00in /  0mm
11:04 30.2 °F /  -1 °C 23.2 °F /  -4.9 °C 29.99in /  1015.5hPa SSW 7.0mph /  11.3km/h 13.0mph /  20.9km/h 75% 0.00in /  0mm
11:09 30.3 °F /  -0.9 °C 23.3 °F /  -4.8 °C 29.99in /  1015.5hPa SSW 6.0mph /  9.7km/h 13.0mph /  20.9km/h 75% 0.00in /  0mm
11:14 30.5 °F /  -0.8 °C 23.5 °F /  -4.7 °C 29.99in /  1015.5hPa SSW 6.0mph /  9.7km/h 14.0mph /  22.5km/h 75% 0.00in /  0mm
11:19 30.7 °F /  -0.7 °C 23.4 °F /  -4.8 °C 29.99in /  1015.5hPa SSW 7.0mph /  11.3km/h 14.0mph /  22.5km/h 74% 0.00in /  0mm
11:25 30.9 °F /  -0.6 °C 23.6 °F /  -4.7 °C 30.00in /  1015.8hPa SW 6.0mph /  9.7km/h 13.0mph /  20.9km/h 74% 0.00in /  0mm
11:34 31.4 °F /  -0.3 °C 24.1 °F /  -4.4 °C 29.99in /  1015.5hPa SSW 8.0mph /  12.9km/h 16.0mph /  25.7km/h 74% 0.00in /  0mm
11:39 31.9 °F /  -0.1 °C 24.2 °F /  -4.3 °C 29.99in /  1015.5hPa SSW 6.0mph /  9.7km/h 15.0mph /  24.1km/h 73% 0.00in /  0mm
11:44 32.2 °F /  0.1 °C 24.5 °F /  -4.2 °C 29.99in /  1015.5hPa SSW 5.0mph /  8km/h 12.0mph /  19.3km/h 73% 0.00in /  0mm
11:49 32.6 °F /  0.3 °C 24.6 °F /  -4.1 °C 29.99in /  1015.5hPa SW 7.0mph /  11.3km/h 13.0mph /  20.9km/h 72% 0.00in /  0mm
11:54 32.6 °F /  0.3 °C 24.6 °F /  -4.1 °C 29.99in /  1015.5hPa SSW 8.0mph /  12.9km/h 13.0mph /  20.9km/h 72% 0.00in /  0mm
11:59 32.6 °F /  0.3 °C 24.6 °F /  -4.1 °C 29.99in /  1015.5hPa SSW 6.0mph /  9.7km/h 13.0mph /  20.9km/h 72% 0.00in /  0mm
12:04 33.0 °F /  0.6 °C 25.0 °F /  -3.9 °C 29.99in /  1015.5hPa SSW 5.0mph /  8km/h 12.0mph /  19.3km/h 72% 0.00in /  0mm
12:09 33.2 °F /  0.7 °C 25.2 °F /  -3.8 °C 29.98in /  1015.1hPa SW 5.0mph /  8km/h 11.0mph /  17.7km/h 72% 0.00in /  0mm
12:14 33.4 °F /  0.8 °C 25.3 °F /  -3.7 °C 29.98in /  1015.1hPa SSW 6.0mph /  9.7km/h 11.0mph /  17.7km/h 72% 0.00in /  0mm
12:19 33.8 °F /  1 °C 25.4 °F /  -3.7 °C 29.98in /  1015.1hPa South 5.0mph /  8km/h 11.0mph /  17.7km/h 71% 0.00in /  0mm
12:24 34.2 °F /  1.2 °C 25.4 °F /  -3.7 °C 29.98in /  1015.1hPa South 6.0mph /  9.7km/h 12.0mph /  19.3km/h 70% 0.00in /  0mm
12:29 34.2 °F /  1.2 °C 25.4 °F /  -3.7 °C 29.98in /  1015.1hPa South 5.0mph /  8km/h 12.0mph /  19.3km/h 70% 0.00in /  0mm
12:34 34.4 °F /  1.3 °C 25.6 °F /  -3.6 °C 29.98in /  1015.1hPa SSW 3.0mph /  4.8km/h 9.0mph /  14.5km/h 70% 0.00in /  0mm
12:39 34.9 °F /  1.6 °C 26.1 °F /  -3.3 °C 29.98in /  1015.1hPa Calm   6.0mph /  9.7km/h 70% 0.00in /  0mm
12:44 35.2 °F /  1.8 °C 26.1 °F /  -3.3 °C 29.98in /  1015.1hPa SW 4.0mph /  6.4km/h 8.0mph /  12.9km/h 69% 0.00in /  0mm
12:49 34.8 °F /  1.6 °C 25.7 °F /  -3.5 °C 29.97in /  1014.8hPa SW 7.0mph /  11.3km/h 10.0mph /  16.1km/h 69% 0.00in /  0mm
12:54 34.8 °F /  1.6 °C 26.0 °F /  -3.3 °C 29.97in /  1014.8hPa SSW 6.0mph /  9.7km/h 12.0mph /  19.3km/h 70% 0.00in /  0mm
12:59 35.0 °F /  1.7 °C 26.2 °F /  -3.2 °C 29.97in /  1014.8hPa SSW 5.0mph /  8km/h 13.0mph /  20.9km/h 70% 0.00in /  0mm
13:04 35.4 °F /  1.9 °C 26.6 °F /  -3 °C 29.97in /  1014.8hPa SSW 6.0mph /  9.7km/h 13.0mph /  20.9km/h 70% 0.00in /  0mm
13:09 36.0 °F /  2.2 °C 26.8 °F /  -2.9 °C 29.97in /  1014.8hPa SW 6.0mph /  9.7km/h 12.0mph /  19.3km/h 69% 0.00in /  0mm
13:14 36.7 °F /  2.6 °C 27.1 °F /  -2.7 °C 29.97in /  1014.8hPa SSW 5.0mph /  8km/h 12.0mph /  19.3km/h 68% 0.00in /  0mm
13:19 37.3 °F /  2.9 °C 27.4 °F /  -2.6 °C 29.96in /  1014.4hPa SSW 4.0mph /  6.4km/h 11.0mph /  17.7km/h 67% 0.00in /  0mm
13:24 36.7 °F /  2.6 °C 26.8 °F /  -2.9 °C 29.96in /  1014.4hPa SSW 5.0mph /  8km/h 11.0mph /  17.7km/h 67% 0.00in /  0mm
13:29 36.1 °F /  2.3 °C 26.6 °F /  -3 °C 29.96in /  1014.4hPa SW 5.0mph /  8km/h 11.0mph /  17.7km/h 68% 0.00in /  0mm
13:34 36.0 °F /  2.2 °C 26.5 °F /  -3.1 °C 29.96in /  1014.4hPa South 6.0mph /  9.7km/h 11.0mph /  17.7km/h 68% 0.00in /  0mm
13:39 35.7 °F /  2.1 °C 26.5 °F /  -3.1 °C 29.96in /  1014.4hPa SW 7.0mph /  11.3km/h 11.0mph /  17.7km/h 69% 0.00in /  0mm
13:44 35.5 °F /  1.9 °C 26.3 °F /  -3.2 °C 29.96in /  1014.4hPa SSW 4.0mph /  6.4km/h 12.0mph /  19.3km/h 69% 0.00in /  0mm
13:54 35.3 °F /  1.8 °C 26.5 °F /  -3.1 °C 29.95in /  1014.1hPa SSW 7.0mph /  11.3km/h 13.0mph /  20.9km/h 70% 0.00in /  0mm
13:59 35.2 °F /  1.8 °C 26.4 °F /  -3.1 °C 29.95in /  1014.1hPa SSW 7.0mph /  11.3km/h 15.0mph /  24.1km/h 70% 0.00in /  0mm
14:04 35.5 °F /  1.9 °C 26.7 °F /  -2.9 °C 29.95in /  1014.1hPa South 5.0mph /  8km/h 15.0mph /  24.1km/h 70% 0.00in /  0mm
14:09 35.7 °F /  2.1 °C 26.9 °F /  -2.8 °C 29.94in /  1013.8hPa South 8.0mph /  12.9km/h 13.0mph /  20.9km/h 70% 0.00in /  0mm
14:14 35.9 °F /  2.2 °C 27.1 °F /  -2.7 °C 29.94in /  1013.8hPa SSW 7.0mph /  11.3km/h 15.0mph /  24.1km/h 70% 0.00in /  0mm
14:19 35.7 °F /  2.1 °C 26.9 °F /  -2.8 °C 29.94in /  1013.8hPa South 6.0mph /  9.7km/h 15.0mph /  24.1km/h 70% 0.00in /  0mm
14:24 35.2 °F /  1.8 °C 26.7 °F /  -2.9 °C 29.94in /  1013.8hPa South 8.0mph /  12.9km/h 16.0mph /  25.7km/h 71% 0.00in /  0mm
14:29 35.3 °F /  1.8 °C 26.8 °F /  -2.9 °C 29.93in /  1013.4hPa SSW 6.0mph /  9.7km/h 16.0mph /  25.7km/h 71% 0.00in /  0mm
14:39 35.6 °F /  2 °C 26.8 °F /  -2.9 °C 29.93in /  1013.4hPa South 6.0mph /  9.7km/h 16.0mph /  25.7km/h 70% 0.00in /  0mm
14:44 35.4 °F /  1.9 °C 26.9 °F /  -2.8 °C 29.93in /  1013.4hPa South 7.0mph /  11.3km/h 13.0mph /  20.9km/h 71% 0.00in /  0mm
14:49 35.4 °F /  1.9 °C 26.9 °F /  -2.8 °C 29.93in /  1013.4hPa South 6.0mph /  9.7km/h 13.0mph /  20.9km/h 71% 0.00in /  0mm
14:54 35.5 °F /  1.9 °C 27.0 °F /  -2.8 °C 29.93in /  1013.4hPa South 6.0mph /  9.7km/h 16.0mph /  25.7km/h 71% 0.00in /  0mm
14:59 36.1 °F /  2.3 °C 27.3 °F /  -2.6 °C 29.93in /  1013.4hPa South 6.0mph /  9.7km/h 16.0mph /  25.7km/h 70% 0.00in /  0mm
15:04 36.0 °F /  2.2 °C 27.2 °F /  -2.7 °C 29.93in /  1013.4hPa SSW 7.0mph /  11.3km/h 17.0mph /  27.4km/h 70% 0.00in /  0mm
15:09 35.9 °F /  2.2 °C 27.1 °F /  -2.7 °C 29.93in /  1013.4hPa SSW 4.0mph /  6.4km/h 17.0mph /  27.4km/h 70% 0.00in /  0mm
15:14 35.9 °F /  2.2 °C 27.1 °F /  -2.7 °C 29.92in /  1013.1hPa SSW 6.0mph /  9.7km/h 12.0mph /  19.3km/h 70% 0.00in /  0mm
15:19 36.0 °F /  2.2 °C 27.2 °F /  -2.7 °C 29.92in /  1013.1hPa SSW 4.0mph /  6.4km/h 12.0mph /  19.3km/h 70% 0.00in /  0mm
15:24 36.4 °F /  2.4 °C 27.6 °F /  -2.4 °C 29.92in /  1013.1hPa SSW 5.0mph /  8km/h 13.0mph /  20.9km/h 70% 0.00in /  0mm
15:29 36.9 °F /  2.7 °C 27.7 °F /  -2.4 °C 29.92in /  1013.1hPa SSW 5.0mph /  8km/h 13.0mph /  20.9km/h 69% 0.00in /  0mm
15:34 37.5 °F /  3.1 °C 27.9 °F /  -2.3 °C 29.91in /  1012.8hPa SSW 5.0mph /  8km/h 10.0mph /  16.1km/h 68% 0.00in /  0mm
15:39 37.3 °F /  2.9 °C 27.4 °F /  -2.6 °C 29.92in /  1013.1hPa SSW 7.0mph /  11.3km/h 12.0mph /  19.3km/h 67% 0.00in /  0mm
15:44 37.5 °F /  3.1 °C 27.9 °F /  -2.3 °C 29.92in /  1013.1hPa SSW 4.0mph /  6.4km/h 12.0mph /  19.3km/h 68% 0.00in /  0mm
15:49 37.4 °F /  3 °C 27.4 °F /  -2.6 °C 29.91in /  1012.8hPa SSW 5.0mph /  8km/h 11.0mph /  17.7km/h 67% 0.00in /  0mm
15:54 36.6 °F /  2.6 °C 27.0 °F /  -2.8 °C 29.92in /  1013.1hPa SW 5.0mph /  8km/h 9.0mph /  14.5km/h 68% 0.00in /  0mm
15:59 36.0 °F /  2.2 °C 26.8 °F /  -2.9 °C 29.92in /  1013.1hPa SSW 4.0mph /  6.4km/h 11.0mph /  17.7km/h 69% 0.00in /  0mm
16:04 35.9 °F /  2.2 °C 26.7 °F /  -2.9 °C 29.92in /  1013.1hPa SW 6.0mph /  9.7km/h 11.0mph /  17.7km/h 69% 0.00in /  0mm
16:09 36.2 °F /  2.3 °C 27.0 °F /  -2.8 °C 29.92in /  1013.1hPa SW 6.0mph /  9.7km/h 11.0mph /  17.7km/h 69% 0.00in /  0mm
16:14 36.5 °F /  2.5 °C 26.9 °F /  -2.8 °C 29.92in /  1013.1hPa SSW 6.0mph /  9.7km/h 10.0mph /  16.1km/h 68% 0.00in /  0mm
16:19 36.3 °F /  2.4 °C 26.8 °F /  -2.9 °C 29.92in /  1013.1hPa SSW 3.0mph /  4.8km/h 10.0mph /  16.1km/h 68% 0.00in /  0mm
16:24 36.1 °F /  2.3 °C 26.6 °F /  -3 °C 29.91in /  1012.8hPa SW 3.0mph /  4.8km/h 8.0mph /  12.9km/h 68% 0.00in /  0mm
16:29 35.6 °F /  2 °C 26.4 °F /  -3.1 °C 29.91in /  1012.8hPa SW 3.0mph /  4.8km/h 8.0mph /  12.9km/h 69% 0.00in /  0mm
16:39 35.3 °F /  1.8 °C 26.5 °F /  -3.1 °C 29.91in /  1012.8hPa SSW 5.0mph /  8km/h 10.0mph /  16.1km/h 70% 0.00in /  0mm
16:44 35.2 °F /  1.8 °C 26.7 °F /  -2.9 °C 29.92in /  1013.1hPa SSW 2.0mph /  3.2km/h 10.0mph /  16.1km/h 71% 0.00in /  0mm
16:54 35.1 °F /  1.7 °C 26.6 °F /  -3 °C 29.92in /  1013.1hPa SSW 3.0mph /  4.8km/h 7.0mph /  11.3km/h 71% 0.00in /  0mm
16:59 35.0 °F /  1.7 °C 26.6 °F /  -3 °C 29.91in /  1012.8hPa SSW 3.0mph /  4.8km/h 7.0mph /  11.3km/h 71% 0.00in /  0mm
17:04 34.9 °F /  1.6 °C 26.1 °F /  -3.3 °C 29.91in /  1012.8hPa SSW 5.0mph /  8km/h 9.0mph /  14.5km/h 70% 0.00in /  0mm
17:09 34.6 °F /  1.4 °C 25.8 °F /  -3.4 °C 29.91in /  1012.8hPa South 4.0mph /  6.4km/h 9.0mph /  14.5km/h 70% 0.00in /  0mm
17:14 34.4 °F /  1.3 °C 25.6 °F /  -3.6 °C 29.92in /  1013.1hPa SSW 3.0mph /  4.8km/h 8.0mph /  12.9km/h 70% 0.00in /  0mm
17:19 33.9 °F /  1.1 °C 25.5 °F /  -3.6 °C 29.91in /  1012.8hPa SSW 3.0mph /  4.8km/h 7.0mph /  11.3km/h 71% 0.00in /  0mm
17:24 33.6 °F /  0.9 °C 25.2 °F /  -3.8 °C 29.91in /  1012.8hPa SSW 2.0mph /  3.2km/h 7.0mph /  11.3km/h 71% 0.00in /  0mm
17:29 33.3 °F /  0.7 °C 25.3 °F /  -3.7 °C 29.91in /  1012.8hPa SSW 3.0mph /  4.8km/h 7.0mph /  11.3km/h 72% 0.00in /  0mm
17:34 33.0 °F /  0.6 °C 25.0 °F /  -3.9 °C 29.91in /  1012.8hPa SW 3.0mph /  4.8km/h 9.0mph /  14.5km/h 72% 0.00in /  0mm
17:39 32.8 °F /  0.4 °C 24.8 °F /  -4 °C 29.91in /  1012.8hPa SSW 3.0mph /  4.8km/h 9.0mph /  14.5km/h 72% 0.00in /  0mm
17:44 32.6 °F /  0.3 °C 24.6 °F /  -4.1 °C 29.91in /  1012.8hPa SSW 3.0mph /  4.8km/h 8.0mph /  12.9km/h 72% 0.00in /  0mm
17:49 32.5 °F /  0.3 °C 24.5 °F /  -4.2 °C 29.90in /  1012.4hPa SSW 4.0mph /  6.4km/h 7.0mph /  11.3km/h 72% 0.00in /  0mm
17:54 32.5 °F /  0.3 °C 24.5 °F /  -4.2 °C 29.90in /  1012.4hPa South 4.0mph /  6.4km/h 8.0mph /  12.9km/h 72% 0.00in /  0mm
17:59 32.5 °F /  0.3 °C 24.5 °F /  -4.2 °C 29.90in /  1012.4hPa SSW 4.0mph /  6.4km/h 8.0mph /  12.9km/h 72% 0.00in /  0mm
18:04 32.4 °F /  0.2 °C 24.4 °F /  -4.2 °C 29.90in /  1012.4hPa SSW 4.0mph /  6.4km/h 9.0mph /  14.5km/h 72% 0.00in /  0mm
18:09 32.4 °F /  0.2 °C 24.4 °F /  -4.2 °C 29.90in /  1012.4hPa SSW 2.0mph /  3.2km/h 9.0mph /  14.5km/h 72% 0.00in /  0mm
18:14 32.3 °F /  0.2 °C 24.3 °F /  -4.3 °C 29.90in /  1012.4hPa South 2.0mph /  3.2km/h 8.0mph /  12.9km/h 72% 0.00in /  0mm
18:19 32.2 °F /  0.1 °C 24.2 °F /  -4.3 °C 29.90in /  1012.4hPa SSE 2.0mph /  3.2km/h 10.0mph /  16.1km/h 72% 0.00in /  0mm
18:24 32.1 °F /  0.1 °C 24.1 °F /  -4.4 °C 29.89in /  1012.1hPa South 4.0mph /  6.4km/h 13.0mph /  20.9km/h 72% 0.00in /  0mm
18:29 32.0 °F /  0 °C 24.0 °F /  -4.4 °C 29.90in /  1012.4hPa SSW 6.0mph /  9.7km/h 13.0mph /  20.9km/h 72% 0.00in /  0mm
18:34 31.9 °F /  -0.1 °C 23.9 °F /  -4.5 °C 29.90in /  1012.4hPa SSW 4.0mph /  6.4km/h 11.0mph /  17.7km/h 72% 0.00in /  0mm
18:39 31.9 °F /  -0.1 °C 24.2 °F /  -4.3 °C 29.89in /  1012.1hPa SSW 4.0mph /  6.4km/h 11.0mph /  17.7km/h 73% 0.00in /  0mm
18:44 31.8 °F /  -0.1 °C 24.1 °F /  -4.4 °C 29.89in /  1012.1hPa South 5.0mph /  8km/h 10.0mph /  16.1km/h 73% 0.00in /  0mm
18:49 31.7 °F /  -0.2 °C 24.0 °F /  -4.4 °C 29.88in /  1011.7hPa South 5.0mph /  8km/h 12.0mph /  19.3km/h 73% 0.00in /  0mm
18:59 31.7 °F /  -0.2 °C 24.0 °F /  -4.4 °C 29.88in /  1011.7hPa South 4.0mph /  6.4km/h 12.0mph /  19.3km/h 73% 0.00in /  0mm
19:04 31.6 °F /  -0.2 °C 23.9 °F /  -4.5 °C 29.88in /  1011.7hPa SSW 5.0mph /  8km/h 10.0mph /  16.1km/h 73% 0.00in /  0mm
19:09 31.6 °F /  -0.2 °C 23.9 °F /  -4.5 °C 29.87in /  1011.4hPa South 6.0mph /  9.7km/h 10.0mph /  16.1km/h 73% 0.00in /  0mm
19:14 31.6 °F /  -0.2 °C 23.9 °F /  -4.5 °C 29.87in /  1011.4hPa South 4.0mph /  6.4km/h 10.0mph /  16.1km/h 73% 0.00in /  0mm
19:19 31.6 °F /  -0.2 °C 23.9 °F /  -4.5 °C 29.87in /  1011.4hPa SSE 3.0mph /  4.8km/h 9.0mph /  14.5km/h 73% 0.00in /  0mm
19:24 31.7 °F /  -0.2 °C 24.0 °F /  -4.4 °C 29.87in /  1011.4hPa SSW 4.0mph /  6.4km/h 10.0mph /  16.1km/h 73% 0.00in /  0mm
19:29 31.8 °F /  -0.1 °C 24.1 °F /  -4.4 °C 29.87in /  1011.4hPa SSW 4.0mph /  6.4km/h 10.0mph /  16.1km/h 73% 0.00in /  0mm
19:34 31.8 °F /  -0.1 °C 24.5 °F /  -4.2 °C 29.88in /  1011.7hPa South 5.0mph /  8km/h 10.0mph /  16.1km/h 74% 0.00in /  0mm
19:39 31.8 °F /  -0.1 °C 24.1 °F /  -4.4 °C 29.88in /  1011.7hPa South 5.0mph /  8km/h 10.0mph /  16.1km/h 73% 0.00in /  0mm
19:44 31.8 °F /  -0.1 °C 24.1 °F /  -4.4 °C 29.87in /  1011.4hPa South 7.0mph /  11.3km/h 14.0mph /  22.5km/h 73% 0.00in /  0mm
19:54 31.6 °F /  -0.2 °C 24.3 °F /  -4.3 °C 29.87in /  1011.4hPa South 8.0mph /  12.9km/h 17.0mph /  27.4km/h 74% 0.00in /  0mm
19:59 31.5 °F /  -0.3 °C 24.2 °F /  -4.3 °C 29.87in /  1011.4hPa South 3.0mph /  4.8km/h 16.0mph /  25.7km/h 74% 0.00in /  0mm
20:04 31.5 °F /  -0.3 °C 24.2 °F /  -4.3 °C 29.87in /  1011.4hPa South 4.0mph /  6.4km/h 14.0mph /  22.5km/h 74% 0.00in /  0mm
20:09 31.4 °F /  -0.3 °C 24.1 °F /  -4.4 °C 29.88in /  1011.7hPa South 5.0mph /  8km/h 14.0mph /  22.5km/h 74% 0.00in /  0mm
20:14 31.3 °F /  -0.4 °C 24.3 °F /  -4.3 °C 29.87in /  1011.4hPa South 4.0mph /  6.4km/h 14.0mph /  22.5km/h 75% 0.00in /  0mm
20:19 31.2 °F /  -0.4 °C 24.2 °F /  -4.3 °C 29.87in /  1011.4hPa South 5.0mph /  8km/h 13.0mph /  20.9km/h 75% 0.00in /  0mm
20:24 31.1 °F /  -0.5 °C 24.1 °F /  -4.4 °C 29.87in /  1011.4hPa South 6.0mph /  9.7km/h 14.0mph /  22.5km/h 75% 0.00in /  0mm
20:29 31.0 °F /  -0.6 °C 24.3 °F /  -4.3 °C 29.87in /  1011.4hPa South 4.0mph /  6.4km/h 14.0mph /  22.5km/h 76% 0.00in /  0mm
20:34 30.9 °F /  -0.6 °C 24.2 °F /  -4.3 °C 29.87in /  1011.4hPa South 5.0mph /  8km/h 13.0mph /  20.9km/h 76% 0.00in /  0mm
20:39 30.8 °F /  -0.7 °C 24.1 °F /  -4.4 °C 29.86in /  1011.1hPa SSE 3.0mph /  4.8km/h 13.0mph /  20.9km/h 76% 0.00in /  0mm
20:44 30.8 °F /  -0.7 °C 24.1 °F /  -4.4 °C 29.86in /  1011.1hPa SSE 7.0mph /  11.3km/h 12.0mph /  19.3km/h 76% 0.00in /  0mm
20:49 30.8 °F /  -0.7 °C 24.1 °F /  -4.4 °C 29.85in /  1010.7hPa SSE 5.0mph /  8km/h 15.0mph /  24.1km/h 76% 0.00in /  0mm
20:54 30.7 °F /  -0.7 °C 24.0 °F /  -4.4 °C 29.85in /  1010.7hPa South 3.0mph /  4.8km/h 15.0mph /  24.1km/h 76% 0.00in /  0mm
20:59 30.7 °F /  -0.7 °C 24.0 °F /  -4.4 °C 29.85in /  1010.7hPa South 6.0mph /  9.7km/h 13.0mph /  20.9km/h 76% 0.00in /  0mm
21:04 30.7 °F /  -0.7 °C 24.0 °F /  -4.4 °C 29.84in /  1010.4hPa South 5.0mph /  8km/h 13.0mph /  20.9km/h 76% 0.00in /  0mm
21:09 30.8 °F /  -0.7 °C 24.1 °F /  -4.4 °C 29.84in /  1010.4hPa South 2.0mph /  3.2km/h 11.0mph /  17.7km/h 76% 0.00in /  0mm
21:14 30.8 °F /  -0.7 °C 24.1 °F /  -4.4 °C 29.84in /  1010.4hPa South 5.0mph /  8km/h 9.0mph /  14.5km/h 76% 0.00in /  0mm
21:19 30.9 °F /  -0.6 °C 24.2 °F /  -4.3 °C 29.83in /  1010hPa SSE 1.0mph /  1.6km/h 9.0mph /  14.5km/h 76% 0.00in /  0mm
21:24 30.9 °F /  -0.6 °C 24.2 °F /  -4.3 °C 29.83in /  1010hPa SSE 3.0mph /  4.8km/h 9.0mph /  14.5km/h 76% 0.00in /  0mm
21:29 31.0 °F /  -0.6 °C 24.3 °F /  -4.3 °C 29.82in /  1009.7hPa South 3.0mph /  4.8km/h 9.0mph /  14.5km/h 76% 0.00in /  0mm
21:34 31.0 °F /  -0.6 °C 24.3 °F /  -4.3 °C 29.82in /  1009.7hPa South 4.0mph /  6.4km/h 9.0mph /  14.5km/h 76% 0.00in /  0mm
21:39 31.1 °F /  -0.5 °C 24.4 °F /  -4.2 °C 29.81in /  1009.4hPa South 4.0mph /  6.4km/h 10.0mph /  16.1km/h 76% 0.00in /  0mm
21:49 31.2 °F /  -0.4 °C 24.5 °F /  -4.2 °C 29.81in /  1009.4hPa SSE 5.0mph /  8km/h 13.0mph /  20.9km/h 76% 0.00in /  0mm
21:54 31.2 °F /  -0.4 °C 24.5 °F /  -4.2 °C 29.80in /  1009hPa South 6.0mph /  9.7km/h 11.0mph /  17.7km/h 76% 0.00in /  0mm
21:59 31.3 °F /  -0.4 °C 24.6 °F /  -4.1 °C 29.80in /  1009hPa South 6.0mph /  9.7km/h 11.0mph /  17.7km/h 76% 0.00in /  0mm
22:04 31.4 °F /  -0.3 °C 24.7 °F /  -4.1 °C 29.79in /  1008.7hPa South 4.0mph /  6.4km/h 11.0mph /  17.7km/h 76% 0.00in /  0mm
22:09 31.4 °F /  -0.3 °C 24.7 °F /  -4.1 °C 29.79in /  1008.7hPa Calm   10.0mph /  16.1km/h 76% 0.00in /  0mm
22:14 31.5 °F /  -0.3 °C 24.8 °F /  -4 °C 29.79in /  1008.7hPa South 5.0mph /  8km/h 11.0mph /  17.7km/h 76% 0.00in /  0mm
22:19 31.6 °F /  -0.2 °C 24.9 °F /  -3.9 °C 29.78in /  1008.4hPa South 6.0mph /  9.7km/h 16.0mph /  25.7km/h 76% 0.00in /  0mm
22:24 31.7 °F /  -0.2 °C 25.0 °F /  -3.9 °C 29.78in /  1008.4hPa South 5.0mph /  8km/h 16.0mph /  25.7km/h 76% 0.00in /  0mm
22:29 31.7 °F /  -0.2 °C 24.7 °F /  -4.1 °C 29.78in /  1008.4hPa South 7.0mph /  11.3km/h 13.0mph /  20.9km/h 75% 0.00in /  0mm
22:34 31.8 °F /  -0.1 °C 24.8 °F /  -4 °C 29.79in /  1008.7hPa SSW 5.0mph /  8km/h 13.0mph /  20.9km/h 75% 0.00in /  0mm
22:39 31.7 °F /  -0.2 °C 24.7 °F /  -4.1 °C 29.78in /  1008.4hPa South 6.0mph /  9.7km/h 12.0mph /  19.3km/h 75% 0.00in /  0mm
22:44 31.7 °F /  -0.2 °C 24.7 °F /  -4.1 °C 29.78in /  1008.4hPa South 7.0mph /  11.3km/h 11.0mph /  17.7km/h 75% 0.00in /  0mm
22:49 31.6 °F /  -0.2 °C 24.6 °F /  -4.1 °C 29.77in /  1008hPa South 5.0mph /  8km/h 11.0mph /  17.7km/h 75% 0.00in /  0mm
22:54 31.5 °F /  -0.3 °C 24.5 °F /  -4.2 °C 29.77in /  1008hPa SSE 2.0mph /  3.2km/h 10.0mph /  16.1km/h 75% 0.00in /  0mm
22:59 31.5 °F /  -0.3 °C 24.8 °F /  -4 °C 29.76in /  1007.7hPa SSW 3.0mph /  4.8km/h 9.0mph /  14.5km/h 76% 0.00in /  0mm
23:04 31.4 °F /  -0.3 °C 24.7 °F /  -4.1 °C 29.76in /  1007.7hPa South 4.0mph /  6.4km/h 9.0mph /  14.5km/h 76% 0.00in /  0mm
23:09 31.4 °F /  -0.3 °C 24.7 °F /  -4.1 °C 29.75in /  1007.3hPa South 6.0mph /  9.7km/h 14.0mph /  22.5km/h 76% 0.00in /  0mm
23:14 31.4 °F /  -0.3 °C 24.7 °F /  -4.1 °C 29.75in /  1007.3hPa South 7.0mph /  11.3km/h 14.0mph /  22.5km/h 76% 0.00in /  0mm
23:19 31.5 °F /  -0.3 °C 24.8 °F /  -4 °C 29.73in /  1006.7hPa South 8.0mph /  12.9km/h 16.0mph /  25.7km/h 76% 0.00in /  0mm
23:29 31.6 °F /  -0.2 °C 24.9 °F /  -3.9 °C 29.72in /  1006.3hPa SSW 7.0mph /  11.3km/h 18.0mph /  29km/h 76% 0.00in /  0mm
23:34 31.6 °F /  -0.2 °C 25.2 °F /  -3.8 °C 29.71in /  1006hPa South 7.0mph /  11.3km/h 18.0mph /  29km/h 77% 0.00in /  0mm
23:39 31.6 °F /  -0.2 °C 25.2 °F /  -3.8 °C 29.70in /  1005.6hPa South 6.0mph /  9.7km/h 18.0mph /  29km/h 77% 0.00in /  0mm
23:44 31.7 °F /  -0.2 °C 25.0 °F /  -3.9 °C 29.70in /  1005.6hPa South 8.0mph /  12.9km/h 18.0mph /  29km/h 76% 0.00in /  0mm
23:49 31.8 °F /  -0.1 °C 25.1 °F /  -3.8 °C 29.70in /  1005.6hPa South 7.0mph /  11.3km/h 16.0mph /  25.7km/h 76% 0.00in /  0mm
23:54 31.8 °F /  -0.1 °C 25.1 °F /  -3.8 °C 29.69in /  1005.3hPa South 7.0mph /  11.3km/h 15.0mph /  24.1km/h 76% 0.00in /  0mm
23:59 31.8 °F /  -0.1 °C 25.1 °F /  -3.8 °C 29.69in /  1005.3hPa SSW 5.0mph /  8km/h 15.0mph /  24.1km/h 76% 0.00in /  0mm
Westford Weather
Compliments of Weather Underground

 
 
Current Radar Loop:

Copyright © WestfordWeather.net 2007-2014. All rights reserved.